KLAS/LAS METAR and TAF weather

Enter ICAO airport designator
Station Type Date Time Source
KLAS METAR 2019/08/22 19:56 UTC NOAA

KLAS 221956Z 20010G16KT 170V240 10SM FEW200 BKN250 39/M08 A2974 RMK AO2 SLP036 T03941078


Station Type Date Time Source
KLAS Decoded METAR 2019/08/22 19:56 UTC NOAA

Station name not available
Aug 22, 2019 - 03:56 PM EDT / 2019.08.22 1956 UTC
Wind: from the SSW (200 degrees) at 12 MPH (10 KT) gusting to 18 MPH (16 KT) (direction variable):0
Visibility: 10 mile(s):0
Sky conditions: mostly cloudy
Temperature: 102.9 F (39.4 C)
Dew Point: 18.0 F (-7.8 C)
Relative Humidity: 4%
Pressure (altimeter): 29.74 in. Hg (1007 hPa)
ob: KLAS 221956Z 20010G16KT 170V240 10SM FEW200 BKN250 39/M08 A2974 RMK AO2 SLP036 T03941078
cycle: 20

Station Type Date Time Source
KLAS TAF 2019/08/22 18:33 UTC NOAA

TAF KLAS 221731Z 2218/2324 15010KT P6SM BKN250
FM221900 18012G20KT P6SM BKN250
FM222100 20016G25KT P6SM BKN250
FM230200 20011KT P6SM BKN250
FM231600 16008KT P6SM FEW250
FM231900 19010G18KT P6SM FEW250

Example: see airport list